sensor_id;sensor_type;location;lat;lon;timestamp;P1;durP1;ratioP1;P2;durP2;ratioP2
8819;SDS011;4446;50.876;4.736;2022-08-30T00:02:12;8.70;;;4.10;;
8819;SDS011;4446;50.876;4.736;2022-08-30T00:04:39;6.57;;;3.58;;
8819;SDS011;4446;50.876;4.736;2022-08-30T00:07:07;6.28;;;3.60;;
8819;SDS011;4446;50.876;4.736;2022-08-30T00:09:34;5.13;;;3.33;;
8819;SDS011;4446;50.876;4.736;2022-08-30T00:12:01;6.00;;;3.70;;
8819;SDS011;4446;50.876;4.736;2022-08-30T00:14:29;6.57;;;3.72;;
8819;SDS011;4446;50.876;4.736;2022-08-30T00:16:56;8.07;;;4.40;;
8819;SDS011;4446;50.876;4.736;2022-08-30T00:19:23;6.63;;;3.90;;
8819;SDS011;4446;50.876;4.736;2022-08-30T00:21:50;6.03;;;3.67;;
8819;SDS011;4446;50.876;4.736;2022-08-30T00:24:18;5.28;;;3.55;;
8819;SDS011;4446;50.876;4.736;2022-08-30T00:26:45;4.57;;;3.55;;
8819;SDS011;4446;50.876;4.736;2022-08-30T00:29:13;7.53;;;3.90;;
8819;SDS011;4446;50.876;4.736;2022-08-30T00:31:40;5.32;;;3.70;;
8819;SDS011;4446;50.876;4.736;2022-08-30T00:34:07;6.70;;;4.07;;
8819;SDS011;4446;50.876;4.736;2022-08-30T00:36:34;7.00;;;4.30;;
8819;SDS011;4446;50.876;4.736;2022-08-30T00:39:01;8.10;;;3.90;;
8819;SDS011;4446;50.876;4.736;2022-08-30T00:41:30;5.47;;;4.13;;
8819;SDS011;4446;50.876;4.736;2022-08-30T00:43:57;5.30;;;4.28;;
8819;SDS011;4446;50.876;4.736;2022-08-30T00:46:24;6.22;;;4.07;;
8819;SDS011;4446;50.876;4.736;2022-08-30T00:48:52;6.38;;;4.13;;
8819;SDS011;4446;50.876;4.736;2022-08-30T00:51:19;4.45;;;4.03;;
8819;SDS011;4446;50.876;4.736;2022-08-30T00:53:51;5.25;;;4.40;;
8819;SDS011;4446;50.876;4.736;2022-08-30T00:56:20;5.43;;;4.30;;
8819;SDS011;4446;50.876;4.736;2022-08-30T00:58:51;7.18;;;4.43;;
8819;SDS011;4446;50.876;4.736;2022-08-30T01:01:22;8.90;;;4.53;;
8819;SDS011;4446;50.876;4.736;2022-08-30T01:03:50;8.05;;;4.47;;
8819;SDS011;4446;50.876;4.736;2022-08-30T01:06:18;6.80;;;4.15;;
8819;SDS011;4446;50.876;4.736;2022-08-30T01:08:46;6.65;;;4.22;;
8819;SDS011;4446;50.876;4.736;2022-08-30T01:11:14;5.95;;;4.00;;
8819;SDS011;4446;50.876;4.736;2022-08-30T01:13:43;5.97;;;4.43;;
8819;SDS011;4446;50.876;4.736;2022-08-30T01:16:13;7.90;;;5.25;;
8819;SDS011;4446;50.876;4.736;2022-08-30T01:18:40;7.95;;;4.63;;
8819;SDS011;4446;50.876;4.736;2022-08-30T01:21:09;7.93;;;5.13;;
8819;SDS011;4446;50.876;4.736;2022-08-30T01:23:44;7.28;;;4.78;;
8819;SDS011;4446;50.876;4.736;2022-08-30T01:26:14;8.65;;;5.05;;
8819;SDS011;4446;50.876;4.736;2022-08-30T01:28:41;7.78;;;4.40;;
8819;SDS011;4446;50.876;4.736;2022-08-30T01:31:12;7.28;;;4.82;;
8819;SDS011;4446;50.876;4.736;2022-08-30T01:33:39;10.07;;;4.70;;
8819;SDS011;4446;50.876;4.736;2022-08-30T01:36:08;7.40;;;4.82;;
8819;SDS011;4446;50.876;4.736;2022-08-30T01:38:39;10.25;;;4.88;;
8819;SDS011;4446;50.876;4.736;2022-08-30T01:41:13;5.78;;;4.53;;
8819;SDS011;4446;50.876;4.736;2022-08-30T01:43:45;6.82;;;4.65;;
8819;SDS011;4446;50.876;4.736;2022-08-30T01:46:13;8.00;;;4.75;;
8819;SDS011;4446;50.876;4.736;2022-08-30T01:48:42;8.63;;;5.35;;
8819;SDS011;4446;50.876;4.736;2022-08-30T01:51:10;7.32;;;4.43;;
8819;SDS011;4446;50.876;4.736;2022-08-30T01:53:38;9.18;;;5.35;;
8819;SDS011;4446;50.876;4.736;2022-08-30T01:56:06;8.88;;;5.35;;
8819;SDS011;4446;50.876;4.736;2022-08-30T01:58:35;6.85;;;5.18;;
8819;SDS011;4446;50.876;4.736;2022-08-30T02:01:04;8.40;;;5.20;;
8819;SDS011;4446;50.876;4.736;2022-08-30T02:03:33;7.55;;;4.88;;
8819;SDS011;4446;50.876;4.736;2022-08-30T02:06:02;5.97;;;5.22;;
8819;SDS011;4446;50.876;4.736;2022-08-30T02:08:29;7.85;;;5.30;;
8819;SDS011;4446;50.876;4.736;2022-08-30T02:10:56;7.15;;;5.10;;
8819;SDS011;4446;50.876;4.736;2022-08-30T02:13:24;7.28;;;5.32;;
8819;SDS011;4446;50.876;4.736;2022-08-30T02:15:52;7.53;;;5.60;;
8819;SDS011;4446;50.876;4.736;2022-08-30T02:18:20;7.57;;;5.57;;
8819;SDS011;4446;50.876;4.736;2022-08-30T02:20:47;11.88;;;5.65;;
8819;SDS011;4446;50.876;4.736;2022-08-30T02:23:14;6.78;;;5.32;;
8819;SDS011;4446;50.876;4.736;2022-08-30T02:25:41;5.68;;;5.00;;
8819;SDS011;4446;50.876;4.736;2022-08-30T02:28:09;8.02;;;5.80;;
8819;SDS011;4446;50.876;4.736;2022-08-30T02:30:37;8.07;;;5.93;;
8819;SDS011;4446;50.876;4.736;2022-08-30T02:33:06;7.85;;;5.63;;
8819;SDS011;4446;50.876;4.736;2022-08-30T02:35:33;8.40;;;5.80;;
8819;SDS011;4446;50.876;4.736;2022-08-30T02:38:00;9.80;;;5.95;;
8819;SDS011;4446;50.876;4.736;2022-08-30T02:40:27;6.70;;;5.35;;
8819;SDS011;4446;50.876;4.736;2022-08-30T02:42:54;7.65;;;5.82;;
8819;SDS011;4446;50.876;4.736;2022-08-30T02:45:22;8.98;;;5.13;;
8819;SDS011;4446;50.876;4.736;2022-08-30T02:47:50;8.68;;;6.35;;
8819;SDS011;4446;50.876;4.736;2022-08-30T02:50:18;7.13;;;5.75;;
8819;SDS011;4446;50.876;4.736;2022-08-30T02:52:46;7.93;;;5.82;;
8819;SDS011;4446;50.876;4.736;2022-08-30T02:55:13;7.32;;;5.97;;
8819;SDS011;4446;50.876;4.736;2022-08-30T02:57:41;8.75;;;6.68;;
8819;SDS011;4446;50.876;4.736;2022-08-30T03:00:09;9.98;;;5.95;;
8819;SDS011;4446;50.876;4.736;2022-08-30T03:02:38;7.75;;;5.72;;
8819;SDS011;4446;50.876;4.736;2022-08-30T03:05:06;9.07;;;5.57;;
8819;SDS011;4446;50.876;4.736;2022-08-30T03:07:34;7.80;;;6.13;;
8819;SDS011;4446;50.876;4.736;2022-08-30T03:10:01;10.35;;;6.45;;
8819;SDS011;4446;50.876;4.736;2022-08-30T03:12:29;8.60;;;6.20;;
8819;SDS011;4446;50.876;4.736;2022-08-30T03:14:56;9.65;;;6.90;;
8819;SDS011;4446;50.876;4.736;2022-08-30T03:17:24;10.65;;;6.70;;
8819;SDS011;4446;50.876;4.736;2022-08-30T03:19:51;9.43;;;6.10;;
8819;SDS011;4446;50.876;4.736;2022-08-30T03:22:18;9.93;;;6.68;;
8819;SDS011;4446;50.876;4.736;2022-08-30T03:24:46;8.05;;;6.05;;
8819;SDS011;4446;50.876;4.736;2022-08-30T03:27:13;9.27;;;6.22;;
8819;SDS011;4446;50.876;4.736;2022-08-30T03:29:40;10.85;;;6.85;;
8819;SDS011;4446;50.876;4.736;2022-08-30T03:32:07;8.90;;;6.22;;
8819;SDS011;4446;50.876;4.736;2022-08-30T03:34:34;7.70;;;6.00;;
8819;SDS011;4446;50.876;4.736;2022-08-30T03:37:01;7.72;;;6.13;;
8819;SDS011;4446;50.876;4.736;2022-08-30T03:39:28;8.40;;;6.15;;
8819;SDS011;4446;50.876;4.736;2022-08-30T03:41:57;9.73;;;6.95;;
8819;SDS011;4446;50.876;4.736;2022-08-30T03:44:24;9.43;;;6.70;;
8819;SDS011;4446;50.876;4.736;2022-08-30T03:46:51;7.78;;;6.35;;
8819;SDS011;4446;50.876;4.736;2022-08-30T03:49:18;7.13;;;6.28;;
8819;SDS011;4446;50.876;4.736;2022-08-30T03:51:46;7.65;;;6.25;;
8819;SDS011;4446;50.876;4.736;2022-08-30T03:54:13;8.55;;;6.22;;
8819;SDS011;4446;50.876;4.736;2022-08-30T03:56:40;10.00;;;6.45;;
8819;SDS011;4446;50.876;4.736;2022-08-30T03:59:08;8.85;;;7.07;;
8819;SDS011;4446;50.876;4.736;2022-08-30T04:01:35;7.88;;;6.43;;
8819;SDS011;4446;50.876;4.736;2022-08-30T04:04:03;10.35;;;7.30;;
8819;SDS011;4446;50.876;4.736;2022-08-30T04:06:30;11.98;;;7.30;;
8819;SDS011;4446;50.876;4.736;2022-08-30T04:08:57;9.43;;;7.07;;
8819;SDS011;4446;50.876;4.736;2022-08-30T04:11:24;7.93;;;6.38;;
8819;SDS011;4446;50.876;4.736;2022-08-30T04:13:52;10.57;;;6.90;;
8819;SDS011;4446;50.876;4.736;2022-08-30T04:16:21;9.10;;;6.45;;
8819;SDS011;4446;50.876;4.736;2022-08-30T04:18:49;12.32;;;7.00;;
8819;SDS011;4446;50.876;4.736;2022-08-30T04:21:16;7.90;;;5.97;;
8819;SDS011;4446;50.876;4.736;2022-08-30T04:23:43;9.30;;;6.90;;
8819;SDS011;4446;50.876;4.736;2022-08-30T04:26:11;12.43;;;7.22;;
8819;SDS011;4446;50.876;4.736;2022-08-30T04:28:38;9.00;;;6.93;;
8819;SDS011;4446;50.876;4.736;2022-08-30T04:31:06;10.70;;;7.07;;
8819;SDS011;4446;50.876;4.736;2022-08-30T04:33:36;8.73;;;7.07;;
8819;SDS011;4446;50.876;4.736;2022-08-30T04:36:03;11.68;;;8.38;;
8819;SDS011;4446;50.876;4.736;2022-08-30T04:38:31;10.55;;;7.30;;
8819;SDS011;4446;50.876;4.736;2022-08-30T04:40:59;10.95;;;7.88;;
8819;SDS011;4446;50.876;4.736;2022-08-30T04:43:27;9.75;;;7.55;;
8819;SDS011;4446;50.876;4.736;2022-08-30T04:45:54;10.60;;;7.38;;
8819;SDS011;4446;50.876;4.736;2022-08-30T04:48:22;10.82;;;8.32;;
8819;SDS011;4446;50.876;4.736;2022-08-30T04:50:50;12.52;;;8.48;;
8819;SDS011;4446;50.876;4.736;2022-08-30T04:53:17;9.90;;;8.48;;
8819;SDS011;4446;50.876;4.736;2022-08-30T04:55:44;11.73;;;7.75;;
8819;SDS011;4446;50.876;4.736;2022-08-30T04:58:12;8.98;;;8.07;;
8819;SDS011;4446;50.876;4.736;2022-08-30T05:00:39;10.85;;;7.75;;
8819;SDS011;4446;50.876;4.736;2022-08-30T05:03:09;10.35;;;8.23;;
8819;SDS011;4446;50.876;4.736;2022-08-30T05:05:36;11.18;;;8.50;;
8819;SDS011;4446;50.876;4.736;2022-08-30T05:08:08;9.40;;;7.28;;
8819;SDS011;4446;50.876;4.736;2022-08-30T05:10:38;11.65;;;7.80;;
8819;SDS011;4446;50.876;4.736;2022-08-30T05:13:06;8.23;;;6.97;;
8819;SDS011;4446;50.876;4.736;2022-08-30T05:15:33;12.15;;;8.80;;
8819;SDS011;4446;50.876;4.736;2022-08-30T05:18:00;10.30;;;7.10;;
8819;SDS011;4446;50.876;4.736;2022-08-30T05:20:27;9.70;;;7.65;;
8819;SDS011;4446;50.876;4.736;2022-08-30T05:22:54;9.35;;;7.78;;
8819;SDS011;4446;50.876;4.736;2022-08-30T05:25:23;10.98;;;8.23;;
8819;SDS011;4446;50.876;4.736;2022-08-30T05:27:52;10.30;;;8.70;;
8819;SDS011;4446;50.876;4.736;2022-08-30T05:30:19;8.32;;;7.47;;
8819;SDS011;4446;50.876;4.736;2022-08-30T05:32:48;9.50;;;7.45;;
8819;SDS011;4446;50.876;4.736;2022-08-30T05:35:15;10.27;;;8.00;;
8819;SDS011;4446;50.876;4.736;2022-08-30T05:37:44;11.43;;;8.23;;
8819;SDS011;4446;50.876;4.736;2022-08-30T05:40:12;10.35;;;7.63;;
8819;SDS011;4446;50.876;4.736;2022-08-30T05:42:42;8.18;;;7.38;;
8819;SDS011;4446;50.876;4.736;2022-08-30T05:45:11;12.75;;;7.43;;
8819;SDS011;4446;50.876;4.736;2022-08-30T05:47:38;13.30;;;8.88;;
8819;SDS011;4446;50.876;4.736;2022-08-30T05:50:06;9.88;;;8.85;;
8819;SDS011;4446;50.876;4.736;2022-08-30T05:52:33;10.05;;;8.07;;
8819;SDS011;4446;50.876;4.736;2022-08-30T05:55:01;13.23;;;8.70;;
8819;SDS011;4446;50.876;4.736;2022-08-30T05:57:30;10.30;;;8.60;;
8819;SDS011;4446;50.876;4.736;2022-08-30T05:59:59;11.40;;;8.52;;
8819;SDS011;4446;50.876;4.736;2022-08-30T06:02:27;10.32;;;8.50;;
8819;SDS011;4446;50.876;4.736;2022-08-30T06:04:54;11.57;;;9.02;;
8819;SDS011;4446;50.876;4.736;2022-08-30T06:07:21;10.38;;;8.48;;
8819;SDS011;4446;50.876;4.736;2022-08-30T06:09:48;10.80;;;9.13;;
8819;SDS011;4446;50.876;4.736;2022-08-30T06:12:15;11.10;;;9.00;;
8819;SDS011;4446;50.876;4.736;2022-08-30T06:14:42;10.32;;;8.40;;
8819;SDS011;4446;50.876;4.736;2022-08-30T06:17:10;8.95;;;8.05;;
8819;SDS011;4446;50.876;4.736;2022-08-30T06:19:37;11.25;;;8.90;;
8819;SDS011;4446;50.876;4.736;2022-08-30T06:22:04;36.78;;;12.98;;
8819;SDS011;4446;50.876;4.736;2022-08-30T06:24:31;33.38;;;11.57;;
8819;SDS011;4446;50.876;4.736;2022-08-30T06:27:01;12.35;;;10.13;;
8819;SDS011;4446;50.876;4.736;2022-08-30T06:29:28;20.77;;;10.85;;
8819;SDS011;4446;50.876;4.736;2022-08-30T06:31:55;31.75;;;12.60;;
8819;SDS011;4446;50.876;4.736;2022-08-30T06:34:24;14.15;;;8.90;;
8819;SDS011;4446;50.876;4.736;2022-08-30T06:36:52;10.95;;;8.70;;
8819;SDS011;4446;50.876;4.736;2022-08-30T06:39:19;11.73;;;8.57;;
8819;SDS011;4446;50.876;4.736;2022-08-30T06:41:46;12.00;;;8.98;;
8819;SDS011;4446;50.876;4.736;2022-08-30T06:44:13;10.18;;;8.88;;
8819;SDS011;4446;50.876;4.736;2022-08-30T06:46:40;11.30;;;8.20;;
8819;SDS011;4446;50.876;4.736;2022-08-30T06:49:07;10.70;;;8.70;;
8819;SDS011;4446;50.876;4.736;2022-08-30T06:51:36;12.55;;;8.80;;
8819;SDS011;4446;50.876;4.736;2022-08-30T06:54:05;10.57;;;8.25;;
8819;SDS011;4446;50.876;4.736;2022-08-30T06:56:32;9.38;;;7.30;;
8819;SDS011;4446;50.876;4.736;2022-08-30T06:58:59;9.75;;;8.50;;
8819;SDS011;4446;50.876;4.736;2022-08-30T07:01:27;8.80;;;7.90;;
8819;SDS011;4446;50.876;4.736;2022-08-30T07:03:55;9.18;;;8.23;;
8819;SDS011;4446;50.876;4.736;2022-08-30T07:06:23;11.00;;;8.65;;
8819;SDS011;4446;50.876;4.736;2022-08-30T07:08:52;9.18;;;7.97;;
8819;SDS011;4446;50.876;4.736;2022-08-30T07:11:26;16.30;;;8.52;;
8819;SDS011;4446;50.876;4.736;2022-08-30T07:13:55;23.17;;;9.43;;
8819;SDS011;4446;50.876;4.736;2022-08-30T07:16:23;32.45;;;10.57;;
8819;SDS011;4446;50.876;4.736;2022-08-30T07:18:50;55.45;;;12.93;;
8819;SDS011;4446;50.876;4.736;2022-08-30T07:21:19;19.88;;;9.48;;
8819;SDS011;4446;50.876;4.736;2022-08-30T07:23:48;13.82;;;8.13;;
8819;SDS011;4446;50.876;4.736;2022-08-30T07:26:18;25.20;;;11.30;;
8819;SDS011;4446;50.876;4.736;2022-08-30T07:28:47;12.95;;;7.60;;
8819;SDS011;4446;50.876;4.736;2022-08-30T07:31:15;11.68;;;8.30;;
8819;SDS011;4446;50.876;4.736;2022-08-30T07:33:43;10.80;;;7.50;;
8819;SDS011;4446;50.876;4.736;2022-08-30T07:36:11;9.68;;;7.25;;
8819;SDS011;4446;50.876;4.736;2022-08-30T07:38:39;10.98;;;7.22;;
8819;SDS011;4446;50.876;4.736;2022-08-30T07:41:06;11.90;;;6.95;;
8819;SDS011;4446;50.876;4.736;2022-08-30T07:43:35;10.45;;;7.35;;
8819;SDS011;4446;50.876;4.736;2022-08-30T07:46:03;8.80;;;6.60;;
8819;SDS011;4446;50.876;4.736;2022-08-30T07:48:32;7.97;;;6.15;;
8819;SDS011;4446;50.876;4.736;2022-08-30T07:50:59;7.85;;;6.15;;
8819;SDS011;4446;50.876;4.736;2022-08-30T07:53:28;12.18;;;6.45;;
8819;SDS011;4446;50.876;4.736;2022-08-30T07:55:55;7.05;;;5.68;;
8819;SDS011;4446;50.876;4.736;2022-08-30T07:58:23;9.15;;;6.88;;
8819;SDS011;4446;50.876;4.736;2022-08-30T08:00:51;6.13;;;5.47;;
8819;SDS011;4446;50.876;4.736;2022-08-30T08:03:18;11.27;;;6.72;;
8819;SDS011;4446;50.876;4.736;2022-08-30T08:05:45;7.03;;;5.82;;
8819;SDS011;4446;50.876;4.736;2022-08-30T08:08:12;6.28;;;5.35;;
8819;SDS011;4446;50.876;4.736;2022-08-30T08:10:40;8.88;;;5.75;;
8819;SDS011;4446;50.876;4.736;2022-08-30T08:13:07;8.90;;;6.05;;
8819;SDS011;4446;50.876;4.736;2022-08-30T08:15:34;6.50;;;5.88;;
8819;SDS011;4446;50.876;4.736;2022-08-30T08:18:03;8.45;;;6.10;;
8819;SDS011;4446;50.876;4.736;2022-08-30T08:20:30;5.97;;;4.95;;
8819;SDS011;4446;50.876;4.736;2022-08-30T08:22:58;6.13;;;5.45;;
8819;SDS011;4446;50.876;4.736;2022-08-30T08:25:26;7.22;;;5.00;;
8819;SDS011;4446;50.876;4.736;2022-08-30T08:27:53;7.05;;;5.20;;
8819;SDS011;4446;50.876;4.736;2022-08-30T08:30:20;9.88;;;5.00;;
8819;SDS011;4446;50.876;4.736;2022-08-30T08:32:48;6.28;;;5.25;;
8819;SDS011;4446;50.876;4.736;2022-08-30T08:35:18;7.90;;;5.18;;
8819;SDS011;4446;50.876;4.736;2022-08-30T08:37:45;7.63;;;4.43;;
8819;SDS011;4446;50.876;4.736;2022-08-30T08:40:14;5.05;;;4.28;;
8819;SDS011;4446;50.876;4.736;2022-08-30T08:45:41;5.82;;;4.05;;
8819;SDS011;4446;50.876;4.736;2022-08-30T08:48:17;9.43;;;5.07;;
8819;SDS011;4446;50.876;4.736;2022-08-30T08:50:59;5.47;;;4.13;;
8819;SDS011;4446;50.876;4.736;2022-08-30T08:53:47;8.68;;;4.70;;
8819;SDS011;4446;50.876;4.736;2022-08-30T08:56:17;11.07;;;5.10;;
8819;SDS011;4446;50.876;4.736;2022-08-30T08:58:47;7.28;;;4.68;;
8819;SDS011;4446;50.876;4.736;2022-08-30T09:01:16;5.38;;;3.92;;
8819;SDS011;4446;50.876;4.736;2022-08-30T09:03:45;5.82;;;4.43;;
8819;SDS011;4446;50.876;4.736;2022-08-30T09:09:14;7.72;;;4.53;;
8819;SDS011;4446;50.876;4.736;2022-08-30T09:11:45;5.70;;;4.40;;
8819;SDS011;4446;50.876;4.736;2022-08-30T09:14:15;6.55;;;4.50;;
8819;SDS011;4446;50.876;4.736;2022-08-30T09:16:45;9.82;;;5.00;;
8819;SDS011;4446;50.876;4.736;2022-08-30T09:19:37;6.97;;;4.53;;
8819;SDS011;4446;50.876;4.736;2022-08-30T09:22:18;8.10;;;4.80;;
8819;SDS011;4446;50.876;4.736;2022-08-30T09:24:53;6.43;;;4.47;;
8819;SDS011;4446;50.876;4.736;2022-08-30T09:27:26;6.72;;;4.40;;
8819;SDS011;4446;50.876;4.736;2022-08-30T09:29:57;7.20;;;4.20;;
8819;SDS011;4446;50.876;4.736;2022-08-30T09:32:28;6.35;;;4.18;;
8819;SDS011;4446;50.876;4.736;2022-08-30T09:35:00;5.15;;;4.47;;
8819;SDS011;4446;50.876;4.736;2022-08-30T09:37:34;6.13;;;4.00;;
8819;SDS011;4446;50.876;4.736;2022-08-30T09:40:10;6.05;;;4.43;;
8819;SDS011;4446;50.876;4.736;2022-08-30T09:42:40;4.40;;;4.00;;
8819;SDS011;4446;50.876;4.736;2022-08-30T09:45:27;6.05;;;4.03;;
8819;SDS011;4446;50.876;4.736;2022-08-30T09:47:55;8.65;;;3.83;;
8819;SDS011;4446;50.876;4.736;2022-08-30T09:50:23;6.50;;;3.80;;
8819;SDS011;4446;50.876;4.736;2022-08-30T09:52:56;5.10;;;3.78;;
8819;SDS011;4446;50.876;4.736;2022-08-30T09:55:43;4.82;;;3.85;;
8819;SDS011;4446;50.876;4.736;2022-08-30T09:58:22;8.20;;;4.35;;
8819;SDS011;4446;50.876;4.736;2022-08-30T10:00:59;5.30;;;3.53;;
8819;SDS011;4446;50.876;4.736;2022-08-30T10:03:34;6.85;;;3.83;;
8819;SDS011;4446;50.876;4.736;2022-08-30T10:06:12;4.57;;;3.67;;
8819;SDS011;4446;50.876;4.736;2022-08-30T10:08:47;5.95;;;4.15;;
8819;SDS011;4446;50.876;4.736;2022-08-30T10:11:25;4.78;;;3.63;;
8819;SDS011;4446;50.876;4.736;2022-08-30T10:17:11;7.45;;;3.60;;
8819;SDS011;4446;50.876;4.736;2022-08-30T10:19:51;4.47;;;3.55;;
8819;SDS011;4446;50.876;4.736;2022-08-30T10:22:27;5.68;;;3.78;;
8819;SDS011;4446;50.876;4.736;2022-08-30T10:25:00;5.18;;;3.20;;
8819;SDS011;4446;50.876;4.736;2022-08-30T10:27:35;4.05;;;3.38;;
8819;SDS011;4446;50.876;4.736;2022-08-30T10:30:07;6.53;;;4.00;;
8819;SDS011;4446;50.876;4.736;2022-08-30T10:32:40;4.93;;;3.60;;
8819;SDS011;4446;50.876;4.736;2022-08-30T10:35:12;3.47;;;3.10;;
8819;SDS011;4446;50.876;4.736;2022-08-30T10:37:43;7.93;;;3.33;;
8819;SDS011;4446;50.876;4.736;2022-08-30T10:40:14;6.22;;;3.20;;
8819;SDS011;4446;50.876;4.736;2022-08-30T10:43:05;3.97;;;3.30;;
8819;SDS011;4446;50.876;4.736;2022-08-30T10:45:39;4.55;;;3.20;;
8819;SDS011;4446;50.876;4.736;2022-08-30T10:48:12;7.00;;;3.50;;
8819;SDS011;4446;50.876;4.736;2022-08-30T10:50:44;6.60;;;2.97;;
8819;SDS011;4446;50.876;4.736;2022-08-30T10:53:17;6.60;;;3.35;;
8819;SDS011;4446;50.876;4.736;2022-08-30T10:55:48;6.55;;;3.50;;
8819;SDS011;4446;50.876;4.736;2022-08-30T10:58:20;6.20;;;3.35;;
8819;SDS011;4446;50.876;4.736;2022-08-30T11:00:52;4.75;;;3.35;;
8819;SDS011;4446;50.876;4.736;2022-08-30T11:03:34;4.35;;;3.08;;
8819;SDS011;4446;50.876;4.736;2022-08-30T11:06:41;4.82;;;3.08;;
8819;SDS011;4446;50.876;4.736;2022-08-30T11:09:17;8.55;;;3.40;;
8819;SDS011;4446;50.876;4.736;2022-08-30T11:12:04;10.32;;;3.67;;
8819;SDS011;4446;50.876;4.736;2022-08-30T11:14:47;5.30;;;3.33;;
8819;SDS011;4446;50.876;4.736;2022-08-30T11:17:23;5.90;;;3.03;;
8819;SDS011;4446;50.876;4.736;2022-08-30T11:19:53;5.57;;;3.22;;
8819;SDS011;4446;50.876;4.736;2022-08-30T11:22:24;3.45;;;2.92;;
8819;SDS011;4446;50.876;4.736;2022-08-30T11:24:58;6.63;;;3.30;;
8819;SDS011;4446;50.876;4.736;2022-08-30T11:27:39;4.57;;;3.00;;
8819;SDS011;4446;50.876;4.736;2022-08-30T11:36:06;5.35;;;3.55;;
8819;SDS011;4446;50.876;4.736;2022-08-30T11:41:29;5.90;;;3.80;;
8819;SDS011;4446;50.876;4.736;2022-08-30T11:46:56;6.70;;;3.50;;
8819;SDS011;4446;50.876;4.736;2022-08-30T11:52:28;3.58;;;3.15;;
8819;SDS011;4446;50.876;4.736;2022-08-30T11:55:06;5.07;;;2.85;;
8819;SDS011;4446;50.876;4.736;2022-08-30T11:57:53;5.90;;;3.30;;
8819;SDS011;4446;50.876;4.736;2022-08-30T12:00:26;6.82;;;3.33;;
8819;SDS011;4446;50.876;4.736;2022-08-30T12:02:57;4.28;;;3.33;;
8819;SDS011;4446;50.876;4.736;2022-08-30T12:05:46;4.38;;;3.42;;
8819;SDS011;4446;50.876;4.736;2022-08-30T12:08:39;4.60;;;3.13;;
8819;SDS011;4446;50.876;4.736;2022-08-30T12:14:33;5.75;;;3.58;;
8819;SDS011;4446;50.876;4.736;2022-08-30T12:20:37;6.10;;;3.55;;
8819;SDS011;4446;50.876;4.736;2022-08-30T12:23:16;5.53;;;3.90;;
8819;SDS011;4446;50.876;4.736;2022-08-30T12:25:45;3.97;;;3.35;;
8819;SDS011;4446;50.876;4.736;2022-08-30T12:28:14;5.97;;;3.40;;
8819;SDS011;4446;50.876;4.736;2022-08-30T12:30:45;5.68;;;3.63;;
8819;SDS011;4446;50.876;4.736;2022-08-30T12:33:13;5.50;;;3.70;;
8819;SDS011;4446;50.876;4.736;2022-08-30T12:35:51;5.18;;;3.53;;
8819;SDS011;4446;50.876;4.736;2022-08-30T12:38:21;7.03;;;3.63;;
8819;SDS011;4446;50.876;4.736;2022-08-30T12:40:49;5.75;;;3.67;;
8819;SDS011;4446;50.876;4.736;2022-08-30T12:43:21;7.28;;;3.53;;
8819;SDS011;4446;50.876;4.736;2022-08-30T12:45:56;5.95;;;4.10;;
8819;SDS011;4446;50.876;4.736;2022-08-30T12:48:28;6.50;;;3.50;;
8819;SDS011;4446;50.876;4.736;2022-08-30T12:51:00;5.10;;;3.50;;
8819;SDS011;4446;50.876;4.736;2022-08-30T12:53:29;4.75;;;3.45;;
8819;SDS011;4446;50.876;4.736;2022-08-30T12:55:59;5.15;;;3.70;;
8819;SDS011;4446;50.876;4.736;2022-08-30T13:01:18;4.07;;;3.28;;
8819;SDS011;4446;50.876;4.736;2022-08-30T13:03:55;5.88;;;3.58;;
8819;SDS011;4446;50.876;4.736;2022-08-30T13:06:35;5.47;;;3.72;;
8819;SDS011;4446;50.876;4.736;2022-08-30T13:09:05;5.57;;;3.70;;
8819;SDS011;4446;50.876;4.736;2022-08-30T13:11:33;5.20;;;3.63;;
8819;SDS011;4446;50.876;4.736;2022-08-30T13:16:47;5.35;;;3.38;;
8819;SDS011;4446;50.876;4.736;2022-08-30T13:19:30;4.78;;;3.50;;
8819;SDS011;4446;50.876;4.736;2022-08-30T13:21:59;3.97;;;3.42;;
8819;SDS011;4446;50.876;4.736;2022-08-30T13:24:28;4.93;;;3.22;;
8819;SDS011;4446;50.876;4.736;2022-08-30T13:26:57;4.47;;;3.33;;
8819;SDS011;4446;50.876;4.736;2022-08-30T13:29:37;4.15;;;3.40;;
8819;SDS011;4446;50.876;4.736;2022-08-30T13:32:12;4.68;;;3.50;;
8819;SDS011;4446;50.876;4.736;2022-08-30T13:34:40;5.25;;;3.42;;
8819;SDS011;4446;50.876;4.736;2022-08-30T13:37:08;3.53;;;3.10;;
8819;SDS011;4446;50.876;4.736;2022-08-30T13:39:40;6.00;;;3.20;;
8819;SDS011;4446;50.876;4.736;2022-08-30T13:42:10;4.20;;;3.03;;
8819;SDS011;4446;50.876;4.736;2022-08-30T13:44:38;3.72;;;2.88;;
8819;SDS011;4446;50.876;4.736;2022-08-30T13:47:05;4.68;;;3.00;;
8819;SDS011;4446;50.876;4.736;2022-08-30T13:49:33;4.32;;;3.00;;
8819;SDS011;4446;50.876;4.736;2022-08-30T13:52:04;7.72;;;3.05;;
8819;SDS011;4446;50.876;4.736;2022-08-30T13:54:32;5.55;;;2.90;;
8819;SDS011;4446;50.876;4.736;2022-08-30T13:57:01;5.65;;;3.38;;
8819;SDS011;4446;50.876;4.736;2022-08-30T13:59:28;5.10;;;3.35;;
8819;SDS011;4446;50.876;4.736;2022-08-30T14:01:57;4.70;;;2.90;;
8819;SDS011;4446;50.876;4.736;2022-08-30T14:04:24;3.95;;;3.00;;
8819;SDS011;4446;50.876;4.736;2022-08-30T14:06:51;5.13;;;3.30;;
8819;SDS011;4446;50.876;4.736;2022-08-30T14:09:19;6.43;;;3.08;;
8819;SDS011;4446;50.876;4.736;2022-08-30T14:11:49;5.10;;;3.20;;
8819;SDS011;4446;50.876;4.736;2022-08-30T14:14:19;8.35;;;3.40;;
8819;SDS011;4446;50.876;4.736;2022-08-30T14:16:47;3.70;;;3.03;;
8819;SDS011;4446;50.876;4.736;2022-08-30T14:19:14;3.30;;;3.00;;
8819;SDS011;4446;50.876;4.736;2022-08-30T14:21:42;4.03;;;2.83;;
8819;SDS011;4446;50.876;4.736;2022-08-30T14:24:10;6.80;;;3.03;;
8819;SDS011;4446;50.876;4.736;2022-08-30T14:26:38;3.45;;;2.80;;
8819;SDS011;4446;50.876;4.736;2022-08-30T14:29:10;6.05;;;3.40;;
8819;SDS011;4446;50.876;4.736;2022-08-30T14:31:40;5.07;;;3.17;;
8819;SDS011;4446;50.876;4.736;2022-08-30T14:34:08;2.88;;;2.50;;
8819;SDS011;4446;50.876;4.736;2022-08-30T14:36:37;5.25;;;2.58;;
8819;SDS011;4446;50.876;4.736;2022-08-30T14:39:06;5.78;;;2.85;;
8819;SDS011;4446;50.876;4.736;2022-08-30T14:41:34;3.40;;;2.83;;
8819;SDS011;4446;50.876;4.736;2022-08-30T14:44:06;4.72;;;3.33;;
8819;SDS011;4446;50.876;4.736;2022-08-30T14:46:33;5.43;;;3.08;;
8819;SDS011;4446;50.876;4.736;2022-08-30T14:49:01;5.60;;;3.03;;
8819;SDS011;4446;50.876;4.736;2022-08-30T14:51:28;3.85;;;3.00;;
8819;SDS011;4446;50.876;4.736;2022-08-30T14:53:55;4.15;;;3.13;;
8819;SDS011;4446;50.876;4.736;2022-08-30T14:56:22;4.97;;;2.83;;
8819;SDS011;4446;50.876;4.736;2022-08-30T14:58:50;4.38;;;2.90;;
8819;SDS011;4446;50.876;4.736;2022-08-30T15:01:24;2.80;;;2.60;;
8819;SDS011;4446;50.876;4.736;2022-08-30T15:03:52;3.97;;;3.00;;
8819;SDS011;4446;50.876;4.736;2022-08-30T15:06:22;6.25;;;3.05;;
8819;SDS011;4446;50.876;4.736;2022-08-30T15:08:52;6.07;;;3.40;;
8819;SDS011;4446;50.876;4.736;2022-08-30T15:11:20;3.60;;;2.90;;
8819;SDS011;4446;50.876;4.736;2022-08-30T15:13:50;4.20;;;3.05;;
8819;SDS011;4446;50.876;4.736;2022-08-30T15:16:18;6.68;;;2.90;;
8819;SDS011;4446;50.876;4.736;2022-08-30T15:18:47;6.13;;;3.10;;
8819;SDS011;4446;50.876;4.736;2022-08-30T15:21:21;6.05;;;2.80;;
8819;SDS011;4446;50.876;4.736;2022-08-30T15:23:50;3.55;;;3.03;;
8819;SDS011;4446;50.876;4.736;2022-08-30T15:26:17;4.85;;;2.95;;
8819;SDS011;4446;50.876;4.736;2022-08-30T15:28:45;3.05;;;2.63;;
8819;SDS011;4446;50.876;4.736;2022-08-30T15:31:12;2.97;;;2.67;;
8819;SDS011;4446;50.876;4.736;2022-08-30T15:33:40;3.53;;;2.53;;
8819;SDS011;4446;50.876;4.736;2022-08-30T15:36:08;7.72;;;2.75;;
8819;SDS011;4446;50.876;4.736;2022-08-30T15:38:36;3.63;;;2.75;;
8819;SDS011;4446;50.876;4.736;2022-08-30T15:41:04;6.40;;;3.00;;
8819;SDS011;4446;50.876;4.736;2022-08-30T15:43:33;5.43;;;2.60;;
8819;SDS011;4446;50.876;4.736;2022-08-30T15:46:08;4.72;;;2.72;;
8819;SDS011;4446;50.876;4.736;2022-08-30T15:48:42;3.85;;;2.47;;
8819;SDS011;4446;50.876;4.736;2022-08-30T15:51:09;3.05;;;2.70;;
8819;SDS011;4446;50.876;4.736;2022-08-30T15:53:38;3.72;;;2.50;;
8819;SDS011;4446;50.876;4.736;2022-08-30T15:56:05;4.03;;;2.70;;
8819;SDS011;4446;50.876;4.736;2022-08-30T15:58:32;3.83;;;2.60;;
8819;SDS011;4446;50.876;4.736;2022-08-30T16:00:59;2.80;;;2.55;;
8819;SDS011;4446;50.876;4.736;2022-08-30T16:03:29;4.55;;;2.58;;
8819;SDS011;4446;50.876;4.736;2022-08-30T16:05:56;4.22;;;2.85;;